Time;durP1;ratioP1;P1;durP2;ratioP2;P2;SDS_P1;SDS_P2;PMS_P1;PMS_P2;Temp;Humidity;BMP_temperature;BMP_pressure;BME280_temperature;BME280_humidity;BME280_pressure;Samples;Min_cycle;Max_cycle;Signal;HPM_P1;HPM_P2
2024/04/13 00:02:00;;;;;;;2.92;2.75;;;;;;;;;;5309752;26;20380;-90
2024/04/13 00:04:28;;;;;;;1.10;1.10;;;;;;;;;;5339138;26;20267;-89
2024/04/13 00:06:56;;;;;;;1.00;1.00;;;;;;;;;;5330826;26;20274;-89
2024/04/13 00:09:25;;;;;;;3.13;2.88;;;;;;;;;;5351338;26;20233;-88
2024/04/13 00:11:54;;;;;;;1.80;1.70;;;;;;;;;;5346050;26;20222;-88
2024/04/13 00:14:23;;;;;;;1.75;1.65;;;;;;;;;;5360351;26;20468;-88
2024/04/13 00:16:52;;;;;;;1.95;1.85;;;;;;;;;;5332704;26;20229;-89
2024/04/13 00:19:19;;;;;;;1.15;1.15;;;;;;;;;;5338461;26;20381;-88
2024/04/13 00:21:47;;;;;;;0.90;0.90;;;;;;;;;;5355607;26;20585;-86
2024/04/13 00:24:16;;;;;;;0.93;0.93;;;;;;;;;;5334963;26;20317;-87
2024/04/13 00:26:49;;;;;;;1.40;1.30;;;;;;;;;;5340961;26;20503;-87
2024/04/13 00:29:22;;;;;;;1.17;1.17;;;;;;;;;;5334434;26;20312;-86
2024/04/13 00:32:08;;;;;;;1.48;1.48;;;;;;;;;;5339948;26;20277;-89
2024/04/13 00:34:39;;;;;;;1.80;1.70;;;;;;;;;;5336447;26;20263;-91
2024/04/13 00:37:08;;;;;;;0.70;0.70;;;;;;;;;;5337465;26;20222;-87
2024/04/13 00:39:49;;;;;;;0.93;0.93;;;;;;;;;;5325807;26;20226;-85
2024/04/13 00:42:19;;;;;;;1.20;1.20;;;;;;;;;;5336095;26;20225;-84
2024/04/13 00:45:03;;;;;;;1.42;1.42;;;;;;;;;;5344513;26;20263;-83
2024/04/13 00:47:34;;;;;;;1.10;1.10;;;;;;;;;;5347309;26;20253;-80
2024/04/13 00:50:12;;;;;;;1.35;0.95;;;;;;;;;;5336003;26;20292;-84
2024/04/13 00:52:41;;;;;;;3.35;2.35;;;;;;;;;;5339333;26;20381;-85
2024/04/13 00:55:10;;;;;;;1.00;0.98;;;;;;;;;;5340814;26;20278;-83
2024/04/13 00:57:39;;;;;;;1.50;0.90;;;;;;;;;;5326041;26;20304;-89
2024/04/13 01:00:12;;;;;;;0.90;0.90;;;;;;;;;;5330568;26;20291;-85
2024/04/13 01:02:42;;;;;;;0.60;0.60;;;;;;;;;;5343639;26;20226;-85
2024/04/13 01:05:24;;;;;;;0.98;0.98;;;;;;;;;;5354371;26;20225;-84
2024/04/13 01:07:55;;;;;;;0.80;0.80;;;;;;;;;;5347608;26;20260;-86
2024/04/13 01:10:24;;;;;;;1.67;1.57;;;;;;;;;;5355867;26;20229;-84
2024/04/13 01:12:51;;;;;;;2.03;1.50;;;;;;;;;;5355256;26;20868;-84
2024/04/13 01:15:19;;;;;;;1.02;1.02;;;;;;;;;;5317478;26;20218;-85
2024/04/13 01:17:47;;;;;;;0.70;0.70;;;;;;;;;;5341394;26;20629;-86
2024/04/13 01:20:15;;;;;;;0.70;0.70;;;;;;;;;;5322603;26;20227;-90
2024/04/13 01:22:50;;;;;;;1.33;1.30;;;;;;;;;;5354589;26;20509;-87
2024/04/13 01:25:21;;;;;;;0.60;0.60;;;;;;;;;;5299059;27;20607;-86
2024/04/13 01:27:51;;;;;;;10.63;1.27;;;;;;;;;;5331753;26;20498;-87
2024/04/13 01:30:22;;;;;;;1.73;1.67;;;;;;;;;;5350296;26;20230;-89
2024/04/13 01:32:51;;;;;;;0.97;0.97;;;;;;;;;;5329919;26;20445;-85
2024/04/13 01:35:20;;;;;;;1.00;1.00;;;;;;;;;;5341145;26;20542;-86
2024/04/13 01:38:14;;;;;;;1.07;0.97;;;;;;;;;;5358380;26;20218;-85
2024/04/13 01:43:47;;;;;;;0.90;0.90;;;;;;;;;;5362682;26;20474;-83
2024/04/13 01:46:14;;;;;;;0.80;0.80;;;;;;;;;;5361638;26;20522;-86
2024/04/13 01:49:10;;;;;;;1.27;1.17;;;;;;;;;;5253698;27;20460;-83
2024/04/13 01:52:05;;;;;;;2.17;1.67;;;;;;;;;;5298091;27;20274;-88
2024/04/13 01:54:34;;;;;;;4.20;1.67;;;;;;;;;;5281419;27;20216;-88
2024/04/13 01:57:03;;;;;;;0.80;0.80;;;;;;;;;;5262636;27;20460;-88
2024/04/13 01:59:33;;;;;;;0.90;0.90;;;;;;;;;;5262656;27;20510;-87
2024/04/13 02:02:03;;;;;;;0.70;0.70;;;;;;;;;;5263511;27;20380;-84
2024/04/13 02:04:32;;;;;;;1.27;1.17;;;;;;;;;;5282502;27;20227;-88
2024/04/13 02:07:00;;;;;;;0.70;0.70;;;;;;;;;;5309610;26;20487;-87
2024/04/13 02:09:31;;;;;;;1.70;1.60;;;;;;;;;;5343777;26;20724;-89
2024/04/13 02:12:00;;;;;;;2.10;2.00;;;;;;;;;;5335122;26;20861;-89
2024/04/13 02:14:28;;;;;;;1.27;1.00;;;;;;;;;;5328791;26;20435;-88
2024/04/13 02:16:58;;;;;;;2.07;1.97;;;;;;;;;;5361882;26;20454;-89
2024/04/13 02:19:29;;;;;;;1.73;1.53;;;;;;;;;;5329855;26;20826;-85
2024/04/13 02:21:57;;;;;;;0.73;0.73;;;;;;;;;;5358327;26;20578;-89
2024/04/13 02:24:58;;;;;;;0.73;0.73;;;;;;;;;;5319520;26;20494;-89
2024/04/13 02:27:27;;;;;;;0.97;0.97;;;;;;;;;;5691692;21;20481;-88
2024/04/13 02:29:59;;;;;;;1.73;1.20;;;;;;;;;;5261500;27;20464;-87
2024/04/13 02:32:27;;;;;;;0.87;0.87;;;;;;;;;;5264527;27;20476;-88
2024/04/13 02:34:55;;;;;;;0.87;0.87;;;;;;;;;;5264039;27;20452;-89
2024/04/13 02:37:25;;;;;;;1.70;1.60;;;;;;;;;;5264118;27;20439;-88
2024/04/13 02:39:55;;;;;;;2.70;2.53;;;;;;;;;;5268616;27;20492;-89
2024/04/13 02:42:23;;;;;;;1.25;1.25;;;;;;;;;;5257912;27;20493;-90
2024/04/13 02:44:50;;;;;;;0.98;0.98;;;;;;;;;;5264535;27;20228;-91
2024/04/13 02:47:21;;;;;;;1.08;1.05;;;;;;;;;;5266288;27;20244;-86
2024/04/13 02:49:50;;;;;;;0.70;0.70;;;;;;;;;;5261170;27;20265;-85
2024/04/13 02:52:20;;;;;;;1.10;1.10;;;;;;;;;;5258432;27;20232;-88
2024/04/13 02:54:54;;;;;;;0.75;0.75;;;;;;;;;;5227789;27;20378;-88
2024/04/13 02:57:27;;;;;;;0.93;0.90;;;;;;;;;;5234220;27;20252;-87
2024/04/13 02:59:55;;;;;;;1.98;1.88;;;;;;;;;;5257271;27;20223;-88
2024/04/13 03:02:28;;;;;;;1.00;1.00;;;;;;;;;;5261530;27;20227;-86
2024/04/13 03:04:56;;;;;;;1.80;1.73;;;;;;;;;;5267829;27;20231;-87
2024/04/13 03:07:30;;;;;;;1.85;1.75;;;;;;;;;;5266318;27;20460;-92
2024/04/13 03:13:45;;;;;;;0.50;0.50;;;;;;;;;;5259210;27;20205;-86
2024/04/13 03:16:12;;;;;;;0.60;0.60;;;;;;;;;;5223161;27;20264;-86
2024/04/13 03:18:43;;;;;;;1.50;1.50;;;;;;;;;;5224813;27;20252;-85
2024/04/13 03:21:38;;;;;;;4.63;1.55;;;;;;;;;;5226955;27;20622;-87
2024/04/13 03:24:25;;;;;;;0.60;0.60;;;;;;;;;;5258666;27;20232;-86
2024/04/13 03:26:54;;;;;;;0.65;0.65;;;;;;;;;;5261318;27;20253;-86
2024/04/13 03:29:21;;;;;;;0.93;0.93;;;;;;;;;;5260719;27;20279;-85
2024/04/13 03:34:57;;;;;;;0.60;0.60;;;;;;;;;;5294438;27;20215;-89
2024/04/13 03:37:28;;;;;;;0.70;0.70;;;;;;;;;;5282623;27;20227;-87
2024/04/13 03:39:58;;;;;;;2.28;2.17;;;;;;;;;;5259810;27;20262;-88
2024/04/13 03:42:25;;;;;;;0.65;0.65;;;;;;;;;;5250316;27;20229;-87
2024/04/13 03:44:53;;;;;;;0.98;0.98;;;;;;;;;;5260294;27;20228;-88
2024/04/13 03:55:16;;;;;;;0.60;0.60;;;;;;;;;;5495212;21;20253;-89
2024/04/13 03:57:45;;;;;;;2.20;2.10;;;;;;;;;;5371733;26;20217;-87
2024/04/13 04:00:18;;;;;;;0.70;0.70;;;;;;;;;;5368136;26;20221;-88
2024/04/13 04:02:45;;;;;;;0.68;0.68;;;;;;;;;;5363634;26;20549;-89
2024/04/13 04:05:15;;;;;;;1.83;1.73;;;;;;;;;;5356979;26;20231;-91
2024/04/13 04:07:42;;;;;;;0.50;0.50;;;;;;;;;;5329358;27;20800;-90
2024/04/13 04:10:11;;;;;;;0.73;0.70;;;;;;;;;;5351816;26;20296;-88
2024/04/13 04:12:40;;;;;;;0.60;0.60;;;;;;;;;;5364930;26;20504;-89
2024/04/13 04:15:21;;;;;;;0.80;0.80;;;;;;;;;;5332444;27;20226;-92
2024/04/13 04:17:53;;;;;;;2.97;1.33;;;;;;;;;;5336619;26;20226;-90
2024/04/13 04:20:22;;;;;;;1.38;1.38;;;;;;;;;;5338180;26;20279;-89
2024/04/13 04:22:50;;;;;;;0.50;0.50;;;;;;;;;;5454695;21;20298;-88
2024/04/13 04:25:20;;;;;;;0.85;0.85;;;;;;;;;;5303725;26;20222;-87
2024/04/13 04:27:48;;;;;;;0.50;0.50;;;;;;;;;;5325112;27;20259;-88
2024/04/13 04:30:18;;;;;;;0.60;0.60;;;;;;;;;;5325287;27;20279;-87
2024/04/13 04:32:50;;;;;;;3.10;2.40;;;;;;;;;;5295489;27;20223;-89
2024/04/13 04:35:19;;;;;;;1.93;1.07;;;;;;;;;;5294095;27;20509;-89
2024/04/13 04:37:49;;;;;;;0.60;0.60;;;;;;;;;;5297074;26;20506;-89
2024/04/13 04:40:28;;;;;;;0.60;0.60;;;;;;;;;;5280679;26;20519;-89
2024/04/13 04:43:03;;;;;;;0.60;0.60;;;;;;;;;;5284828;27;20524;-88
2024/04/13 04:45:36;;;;;;;0.60;0.60;;;;;;;;;;5287737;27;20511;-89
2024/04/13 04:48:08;;;;;;;1.50;1.50;;;;;;;;;;5291819;27;20455;-87
2024/04/13 04:50:45;;;;;;;1.00;1.00;;;;;;;;;;5269327;27;20233;-88
2024/04/13 04:53:14;;;;;;;0.60;0.60;;;;;;;;;;5254669;27;20526;-87
2024/04/13 04:55:45;;;;;;;0.70;0.70;;;;;;;;;;5287901;27;20237;-87
2024/04/13 04:58:12;;;;;;;0.80;0.80;;;;;;;;;;5268085;27;20228;-90
2024/04/13 05:00:40;;;;;;;0.70;0.70;;;;;;;;;;5289070;27;20268;-87
2024/04/13 05:03:07;;;;;;;0.93;0.93;;;;;;;;;;5282338;27;20450;-88
2024/04/13 05:05:40;;;;;;;1.00;0.97;;;;;;;;;;5284374;26;20269;-93
2024/04/13 05:08:13;;;;;;;3.22;2.13;;;;;;;;;;5586986;21;20493;-91
2024/04/13 05:10:43;;;;;;;0.50;0.50;;;;;;;;;;5662945;21;20260;-91
2024/04/13 05:13:10;;;;;;;0.60;0.60;;;;;;;;;;5296268;27;20938;-89
2024/04/13 05:15:38;;;;;;;0.70;0.70;;;;;;;;;;5292962;27;20534;-87
2024/04/13 05:18:08;;;;;;;0.60;0.60;;;;;;;;;;5291288;27;20805;-88
2024/04/13 05:20:37;;;;;;;0.80;0.80;;;;;;;;;;5290407;27;20461;-87
2024/04/13 05:23:05;;;;;;;0.60;0.60;;;;;;;;;;5291689;27;20498;-85
2024/04/13 05:25:33;;;;;;;2.03;1.93;;;;;;;;;;5292139;27;20449;-85
2024/04/13 05:28:02;;;;;;;1.90;1.80;;;;;;;;;;5290875;27;20487;-88
2024/04/13 05:30:30;;;;;;;0.60;0.60;;;;;;;;;;5281998;27;20504;-91
2024/04/13 05:32:58;;;;;;;0.70;0.70;;;;;;;;;;5290529;27;20452;-87
2024/04/13 05:35:26;;;;;;;2.60;2.50;;;;;;;;;;5289323;27;20468;-88
2024/04/13 05:37:54;;;;;;;1.37;1.37;;;;;;;;;;5316098;27;20539;-87
2024/04/13 05:40:24;;;;;;;1.90;1.00;;;;;;;;;;5292898;27;20530;-89
2024/04/13 05:42:52;;;;;;;0.80;0.80;;;;;;;;;;5275460;27;20438;-88
2024/04/13 05:45:19;;;;;;;0.73;0.73;;;;;;;;;;5284835;27;20635;-88
2024/04/13 05:47:50;;;;;;;0.90;0.90;;;;;;;;;;5284984;27;20500;-89
2024/04/13 05:50:18;;;;;;;0.80;0.80;;;;;;;;;;5283129;27;20555;-89
2024/04/13 05:52:47;;;;;;;1.87;1.77;;;;;;;;;;5292474;27;20448;-90
2024/04/13 05:55:19;;;;;;;1.10;1.10;;;;;;;;;;5293387;27;20448;-90
2024/04/13 05:57:52;;;;;;;1.57;1.57;;;;;;;;;;5293463;27;20498;-88
2024/04/13 06:00:22;;;;;;;0.70;0.70;;;;;;;;;;5527140;21;20509;-87
2024/04/13 06:02:57;;;;;;;1.53;1.43;;;;;;;;;;5559388;21;20579;-91
2024/04/13 06:21:36;;;;;;;0.70;0.70;;;;;;;;;;5891305;21;20466;-88
2024/04/13 06:24:12;;;;;;;1.20;1.10;;;;;;;;;;5343227;26;20441;-88
2024/04/13 06:26:40;;;;;;;0.93;0.93;;;;;;;;;;5343985;26;20431;-87
2024/04/13 06:29:08;;;;;;;0.90;0.90;;;;;;;;;;5340370;26;20506;-86
2024/04/13 06:31:38;;;;;;;1.20;1.10;;;;;;;;;;5342074;26;20538;-86
2024/04/13 06:34:07;;;;;;;1.20;1.20;;;;;;;;;;5355484;26;20899;-83
2024/04/13 06:36:35;;;;;;;0.90;0.90;;;;;;;;;;5347099;26;20476;-90
2024/04/13 06:39:14;;;;;;;0.80;0.80;;;;;;;;;;5352172;26;20512;-85
2024/04/13 06:41:43;;;;;;;1.00;1.00;;;;;;;;;;5344122;26;20445;-82
2024/04/13 06:44:14;;;;;;;1.20;1.20;;;;;;;;;;5350872;26;20688;-82
2024/04/13 06:46:52;;;;;;;0.80;0.80;;;;;;;;;;5357856;26;20563;-84
2024/04/13 06:49:22;;;;;;;0.90;0.90;;;;;;;;;;5332578;26;20487;-86
2024/04/13 06:51:49;;;;;;;1.93;1.83;;;;;;;;;;5358026;26;20514;-88
2024/04/13 06:54:18;;;;;;;0.87;0.87;;;;;;;;;;5351538;26;20608;-85
2024/04/13 06:56:47;;;;;;;0.77;0.77;;;;;;;;;;5342024;26;20487;-82
2024/04/13 06:59:17;;;;;;;2.23;2.13;;;;;;;;;;5343669;26;20488;-86
2024/04/13 07:01:45;;;;;;;0.90;0.90;;;;;;;;;;5346052;26;20478;-85
2024/04/13 07:04:12;;;;;;;1.60;1.50;;;;;;;;;;5326669;26;20422;-81
2024/04/13 07:06:44;;;;;;;2.17;2.07;;;;;;;;;;5337037;26;20447;-84
2024/04/13 07:09:14;;;;;;;1.13;1.07;;;;;;;;;;5334262;26;20502;-82
2024/04/13 07:11:49;;;;;;;1.20;1.17;;;;;;;;;;5336739;26;20434;-86
2024/04/13 07:14:19;;;;;;;0.80;0.80;;;;;;;;;;5329700;26;20452;-85
2024/04/13 07:16:52;;;;;;;1.50;1.40;;;;;;;;;;5335743;26;20484;-82
2024/04/13 07:19:21;;;;;;;10.50;2.60;;;;;;;;;;5347153;26;20521;-81
2024/04/13 07:21:52;;;;;;;1.10;1.10;;;;;;;;;;5340582;26;20490;-85
2024/04/13 07:24:21;;;;;;;2.43;2.20;;;;;;;;;;5344779;26;20495;-87
2024/04/13 07:26:58;;;;;;;1.47;1.20;;;;;;;;;;5351594;26;20418;-82
2024/04/13 07:29:26;;;;;;;6.63;3.10;;;;;;;;;;5338874;26;20502;-81
2024/04/13 07:32:07;;;;;;;0.80;0.80;;;;;;;;;;5348210;26;20644;-81
2024/04/13 07:34:37;;;;;;;0.90;0.90;;;;;;;;;;5354568;26;20477;-84
2024/04/13 07:37:04;;;;;;;1.53;1.43;;;;;;;;;;5344617;26;20487;-86
2024/04/13 07:39:32;;;;;;;1.27;1.20;;;;;;;;;;5347674;26;20493;-82
2024/04/13 07:42:02;;;;;;;1.57;1.47;;;;;;;;;;5346687;26;20556;-83
2024/04/13 07:44:31;;;;;;;1.17;1.17;;;;;;;;;;5338320;26;20700;-82
2024/04/13 07:47:05;;;;;;;4.87;4.40;;;;;;;;;;5338699;26;20455;-82
2024/04/13 07:49:33;;;;;;;0.97;0.97;;;;;;;;;;5346787;26;20438;-81
2024/04/13 07:52:01;;;;;;;2.87;2.67;;;;;;;;;;5338767;26;20486;-81
2024/04/13 07:54:28;;;;;;;1.20;1.20;;;;;;;;;;5344955;26;20436;-83
2024/04/13 07:56:59;;;;;;;1.10;1.10;;;;;;;;;;5329903;26;20546;-83
2024/04/13 07:59:26;;;;;;;2.80;1.10;;;;;;;;;;5338729;26;20491;-83
2024/04/13 08:01:55;;;;;;;1.80;1.70;;;;;;;;;;5347488;26;20446;-84
2024/04/13 08:04:23;;;;;;;1.70;1.60;;;;;;;;;;5348974;26;20523;-80
2024/04/13 08:06:51;;;;;;;1.77;1.67;;;;;;;;;;5344835;26;20484;-82
2024/04/13 08:09:18;;;;;;;2.60;2.50;;;;;;;;;;5345134;26;20441;-86
2024/04/13 08:11:46;;;;;;;2.70;2.60;;;;;;;;;;5338260;26;20445;-84
2024/04/13 08:14:13;;;;;;;1.93;1.83;;;;;;;;;;5343176;26;20497;-82
2024/04/13 08:16:42;;;;;;;0.90;0.90;;;;;;;;;;5337639;26;20426;-82
2024/04/13 08:19:10;;;;;;;1.60;1.50;;;;;;;;;;5344045;26;20421;-85
2024/04/13 08:21:37;;;;;;;1.10;1.10;;;;;;;;;;5344559;26;20501;-81
2024/04/13 08:24:05;;;;;;;2.47;2.30;;;;;;;;;;5348716;26;20595;-80
2024/04/13 08:26:32;;;;;;;0.93;0.93;;;;;;;;;;5345592;26;20451;-82
2024/04/13 08:29:00;;;;;;;1.20;1.20;;;;;;;;;;5351654;26;20436;-86
2024/04/13 08:31:30;;;;;;;1.10;1.10;;;;;;;;;;5347305;26;20527;-81
2024/04/13 08:34:00;;;;;;;0.90;0.90;;;;;;;;;;5334756;26;20493;-82
2024/04/13 08:36:28;;;;;;;1.70;1.60;;;;;;;;;;5343057;26;20498;-83
2024/04/13 08:38:56;;;;;;;1.67;1.57;;;;;;;;;;5348035;26;20477;-85
2024/04/13 08:41:30;;;;;;;1.90;1.20;;;;;;;;;;5340328;26;20427;-83
2024/04/13 08:43:59;;;;;;;0.87;0.87;;;;;;;;;;5349801;26;20496;-82
2024/04/13 08:46:27;;;;;;;1.20;1.10;;;;;;;;;;5343675;26;20516;-79
2024/04/13 08:48:55;;;;;;;1.07;1.07;;;;;;;;;;5344870;26;20511;-81
2024/04/13 08:51:23;;;;;;;2.73;2.50;;;;;;;;;;5347206;26;20459;-83
2024/04/13 08:53:51;;;;;;;2.20;2.10;;;;;;;;;;5313267;26;20447;-80
2024/04/13 08:56:20;;;;;;;1.47;1.37;;;;;;;;;;5335707;26;20504;-81
2024/04/13 08:58:51;;;;;;;1.87;1.77;;;;;;;;;;5327775;26;20463;-84
2024/04/13 09:01:23;;;;;;;1.20;1.20;;;;;;;;;;5353507;26;20520;-80
2024/04/13 09:03:51;;;;;;;1.30;1.30;;;;;;;;;;5333690;26;20514;-82
2024/04/13 09:06:20;;;;;;;1.63;1.53;;;;;;;;;;5331807;26;20483;-83
2024/04/13 09:08:49;;;;;;;1.70;1.60;;;;;;;;;;5344815;26;20455;-81
2024/04/13 09:11:22;;;;;;;1.07;1.07;;;;;;;;;;5353384;26;20499;-84
2024/04/13 09:13:49;;;;;;;1.10;1.03;;;;;;;;;;5355714;26;20450;-80
2024/04/13 09:16:19;;;;;;;1.20;1.20;;;;;;;;;;5360405;26;20502;-82
2024/04/13 09:18:46;;;;;;;0.90;0.90;;;;;;;;;;5344182;26;20502;-82
2024/04/13 09:21:15;;;;;;;3.40;3.10;;;;;;;;;;5335331;26;20452;-81
2024/04/13 09:23:44;;;;;;;1.27;1.27;;;;;;;;;;5334131;26;20578;-82
2024/04/13 09:26:11;;;;;;;1.43;1.33;;;;;;;;;;5341555;26;20453;-83
2024/04/13 09:28:39;;;;;;;1.00;1.00;;;;;;;;;;5346294;26;20535;-84
2024/04/13 09:31:09;;;;;;;1.33;1.23;;;;;;;;;;5335890;26;20589;-85
2024/04/13 09:33:40;;;;;;;3.10;2.90;;;;;;;;;;5352586;26;20707;-81
2024/04/13 09:36:09;;;;;;;1.10;1.00;;;;;;;;;;5323881;26;20485;-81
2024/04/13 09:38:37;;;;;;;0.97;0.97;;;;;;;;;;5325357;26;20463;-79
2024/04/13 09:41:07;;;;;;;0.90;0.90;;;;;;;;;;5337125;26;20439;-84
2024/04/13 09:43:36;;;;;;;1.40;1.40;;;;;;;;;;5324712;26;20743;-81
2024/04/13 09:46:04;;;;;;;1.10;1.10;;;;;;;;;;5334644;26;21053;-81
2024/04/13 09:48:39;;;;;;;0.80;0.80;;;;;;;;;;5324941;26;20477;-82
2024/04/13 09:51:07;;;;;;;1.60;1.50;;;;;;;;;;5334661;26;20881;-80
2024/04/13 09:53:35;;;;;;;1.43;1.33;;;;;;;;;;5339816;26;20446;-81
2024/04/13 09:56:05;;;;;;;1.00;1.00;;;;;;;;;;5333632;26;20502;-80
2024/04/13 09:58:32;;;;;;;3.33;2.90;;;;;;;;;;5321588;26;20451;-81
2024/04/13 10:01:02;;;;;;;0.80;0.80;;;;;;;;;;5335959;26;20512;-80
2024/04/13 10:03:31;;;;;;;1.00;1.00;;;;;;;;;;5342428;26;20481;-82
2024/04/13 10:06:00;;;;;;;1.23;1.20;;;;;;;;;;5348704;26;20473;-81
2024/04/13 10:08:29;;;;;;;0.80;0.80;;;;;;;;;;5357563;26;20620;-82
2024/04/13 10:10:57;;;;;;;1.40;1.30;;;;;;;;;;5345666;26;20438;-82
2024/04/13 10:13:26;;;;;;;2.60;2.40;;;;;;;;;;5347737;26;20476;-81
2024/04/13 10:15:54;;;;;;;1.20;1.20;;;;;;;;;;5343326;26;20471;-81
2024/04/13 10:18:21;;;;;;;0.90;0.90;;;;;;;;;;5342623;26;20752;-81
2024/04/13 10:20:56;;;;;;;1.00;1.00;;;;;;;;;;5339403;26;20443;-85
2024/04/13 10:23:24;;;;;;;1.00;1.00;;;;;;;;;;5354620;26;20615;-82
2024/04/13 10:25:58;;;;;;;1.97;1.87;;;;;;;;;;5357775;26;20525;-80
2024/04/13 10:28:25;;;;;;;1.77;1.67;;;;;;;;;;5357701;26;20450;-80
2024/04/13 10:30:53;;;;;;;2.33;1.40;;;;;;;;;;5342987;26;20621;-83
2024/04/13 10:33:21;;;;;;;1.33;1.00;;;;;;;;;;5345087;26;20416;-85
2024/04/13 10:36:03;;;;;;;1.40;1.30;;;;;;;;;;5339606;26;20741;-81
2024/04/13 10:38:32;;;;;;;0.90;0.90;;;;;;;;;;5346940;26;20449;-83
2024/04/13 10:40:59;;;;;;;1.03;1.03;;;;;;;;;;5337742;26;20450;-81
2024/04/13 10:43:27;;;;;;;2.43;1.90;;;;;;;;;;5335599;26;20496;-83
2024/04/13 10:45:59;;;;;;;1.27;1.17;;;;;;;;;;5330589;26;20448;-84
2024/04/13 10:48:28;;;;;;;0.83;0.83;;;;;;;;;;5340787;26;20544;-86
2024/04/13 10:50:57;;;;;;;1.10;1.10;;;;;;;;;;5337680;26;20485;-80
2024/04/13 10:53:28;;;;;;;1.03;1.03;;;;;;;;;;5338314;26;20680;-82
2024/04/13 10:55:58;;;;;;;1.00;1.00;;;;;;;;;;5345770;26;20469;-84
2024/04/13 10:58:29;;;;;;;0.90;0.90;;;;;;;;;;5350045;26;20711;-84
2024/04/13 11:01:00;;;;;;;2.70;2.50;;;;;;;;;;5339181;26;20479;-84
2024/04/13 11:03:30;;;;;;;0.90;0.90;;;;;;;;;;5340446;26;20450;-87
2024/04/13 11:06:01;;;;;;;1.90;1.80;;;;;;;;;;5346998;26;20508;-84
2024/04/13 11:08:30;;;;;;;1.03;1.03;;;;;;;;;;5342660;26;20515;-88
2024/04/13 11:10:59;;;;;;;1.40;1.40;;;;;;;;;;5346035;26;20498;-88
2024/04/13 11:13:29;;;;;;;1.87;1.77;;;;;;;;;;5350876;26;20583;-83
2024/04/13 11:15:59;;;;;;;0.77;0.77;;;;;;;;;;5340266;26;20766;-85
2024/04/13 11:18:27;;;;;;;3.70;3.40;;;;;;;;;;5350379;26;20675;-88
2024/04/13 11:21:01;;;;;;;0.90;0.90;;;;;;;;;;5335267;26;20769;-84
2024/04/13 11:23:31;;;;;;;0.90;0.90;;;;;;;;;;5347445;26;20473;-84
2024/04/13 11:25:59;;;;;;;1.73;1.63;;;;;;;;;;5333105;26;20528;-85
2024/04/13 11:28:26;;;;;;;0.97;0.97;;;;;;;;;;5345124;26;20438;-85
2024/04/13 11:30:54;;;;;;;1.17;1.17;;;;;;;;;;5350352;26;20466;-81
2024/04/13 11:33:24;;;;;;;1.00;0.90;;;;;;;;;;5353394;26;20470;-89
2024/04/13 11:35:57;;;;;;;1.20;1.17;;;;;;;;;;5348637;26;20512;-85
2024/04/13 11:38:27;;;;;;;0.90;0.90;;;;;;;;;;5343257;26;20430;-85
2024/04/13 11:40:55;;;;;;;0.77;0.77;;;;;;;;;;5342513;26;20470;-85
2024/04/13 11:43:24;;;;;;;0.83;0.83;;;;;;;;;;5339853;26;20501;-87
2024/04/13 11:45:56;;;;;;;1.60;1.50;;;;;;;;;;5347544;26;20547;-85
2024/04/13 11:48:25;;;;;;;1.30;1.20;;;;;;;;;;5352626;26;20492;-84
2024/04/13 11:50:58;;;;;;;1.33;1.30;;;;;;;;;;5356232;26;20457;-83
2024/04/13 11:53:26;;;;;;;0.90;0.90;;;;;;;;;;5349051;26;20462;-83
2024/04/13 11:55:57;;;;;;;1.20;1.20;;;;;;;;;;5351693;26;20535;-85
2024/04/13 11:58:25;;;;;;;1.20;1.20;;;;;;;;;;5350473;26;20750;-84
2024/04/13 12:00:53;;;;;;;0.90;0.90;;;;;;;;;;5347403;26;20447;-85
2024/04/13 12:03:21;;;;;;;0.97;0.97;;;;;;;;;;5356066;26;20798;-82
2024/04/13 12:05:50;;;;;;;1.63;1.53;;;;;;;;;;5348999;26;20497;-80
2024/04/13 12:08:17;;;;;;;1.30;1.20;;;;;;;;;;5359043;26;20615;-82
2024/04/13 12:10:45;;;;;;;3.83;2.57;;;;;;;;;;5347211;26;20799;-86
2024/04/13 12:13:13;;;;;;;1.33;1.27;;;;;;;;;;5347848;26;20681;-83
2024/04/13 12:15:52;;;;;;;1.20;1.20;;;;;;;;;;5349350;26;20422;-84
2024/04/13 12:18:20;;;;;;;0.87;0.87;;;;;;;;;;5342448;26;20494;-84
2024/04/13 12:20:48;;;;;;;1.10;1.10;;;;;;;;;;5352594;26;20486;-85
2024/04/13 12:23:18;;;;;;;1.10;1.10;;;;;;;;;;5354985;26;20479;-83
2024/04/13 12:25:45;;;;;;;0.93;0.93;;;;;;;;;;5357830;26;20502;-81
2024/04/13 12:28:14;;;;;;;4.40;2.80;;;;;;;;;;5356272;26;20753;-82
2024/04/13 12:30:44;;;;;;;1.30;1.30;;;;;;;;;;5337203;26;20455;-84
2024/04/13 12:33:19;;;;;;;0.90;0.90;;;;;;;;;;5347491;26;20491;-81
2024/04/13 12:35:46;;;;;;;1.53;1.47;;;;;;;;;;5349055;26;20426;-84
2024/04/13 12:38:14;;;;;;;1.83;1.73;;;;;;;;;;5354734;26;20454;-85
2024/04/13 12:40:44;;;;;;;1.00;1.00;;;;;;;;;;5341372;26;20468;-81
2024/04/13 12:43:18;;;;;;;1.03;1.03;;;;;;;;;;5336613;26;20516;-82
2024/04/13 12:45:45;;;;;;;2.30;2.20;;;;;;;;;;5339508;26;20445;-82
2024/04/13 12:48:15;;;;;;;1.77;1.67;;;;;;;;;;5348459;26;20486;-83
2024/04/13 12:50:47;;;;;;;1.20;1.13;;;;;;;;;;5353920;26;20414;-81
2024/04/13 12:53:16;;;;;;;9.00;1.87;;;;;;;;;;5345113;26;20440;-81
2024/04/13 12:55:44;;;;;;;0.80;0.80;;;;;;;;;;5351275;26;20497;-79
2024/04/13 12:58:13;;;;;;;2.90;1.57;;;;;;;;;;5343338;26;20872;-81
2024/04/13 13:00:40;;;;;;;0.70;0.70;;;;;;;;;;5356747;26;20494;-82
2024/04/13 13:03:08;;;;;;;0.80;0.80;;;;;;;;;;5348291;26;20565;-81
2024/04/13 13:05:36;;;;;;;1.40;1.30;;;;;;;;;;5345465;26;20434;-82
2024/04/13 13:08:07;;;;;;;2.60;2.40;;;;;;;;;;5360850;26;20426;-83
2024/04/13 13:10:35;;;;;;;3.63;2.80;;;;;;;;;;5330412;26;20506;-86
2024/04/13 13:13:02;;;;;;;1.37;1.27;;;;;;;;;;5347025;26;20436;-82
2024/04/13 13:15:30;;;;;;;1.47;1.37;;;;;;;;;;5338364;26;20475;-87
2024/04/13 13:18:00;;;;;;;0.90;0.90;;;;;;;;;;5333069;26;20419;-82
2024/04/13 13:20:28;;;;;;;1.00;1.00;;;;;;;;;;5355282;26;20441;-84
2024/04/13 13:22:57;;;;;;;1.10;1.10;;;;;;;;;;5334468;26;20426;-82
2024/04/13 13:25:24;;;;;;;1.10;1.10;;;;;;;;;;5350140;26;20527;-86
2024/04/13 13:27:55;;;;;;;1.37;1.30;;;;;;;;;;5332093;26;20441;-81
2024/04/13 13:30:23;;;;;;;0.80;0.80;;;;;;;;;;5351526;26;20815;-85
2024/04/13 13:32:54;;;;;;;1.83;1.73;;;;;;;;;;5336118;26;20458;-86
2024/04/13 13:35:25;;;;;;;0.80;0.80;;;;;;;;;;5338436;26;20458;-86
2024/04/13 13:37:53;;;;;;;1.20;1.20;;;;;;;;;;5352626;26;20521;-84
2024/04/13 13:40:23;;;;;;;1.10;1.10;;;;;;;;;;5349133;26;20481;-87
2024/04/13 13:42:56;;;;;;;1.80;1.70;;;;;;;;;;5333744;26;20510;-89
2024/04/13 13:45:23;;;;;;;2.37;1.67;;;;;;;;;;5340524;26;20434;-86
2024/04/13 13:47:55;;;;;;;1.20;1.20;;;;;;;;;;5352085;26;20507;-84
2024/04/13 13:50:22;;;;;;;1.00;1.00;;;;;;;;;;5358535;26;20430;-83
2024/04/13 13:52:52;;;;;;;3.10;1.90;;;;;;;;;;5361481;26;20455;-84
2024/04/13 13:55:22;;;;;;;0.90;0.90;;;;;;;;;;5361781;26;20457;-83
2024/04/13 13:57:51;;;;;;;1.30;1.30;;;;;;;;;;5362323;26;20450;-83
2024/04/13 14:00:20;;;;;;;0.90;0.90;;;;;;;;;;5356728;26;20430;-83
2024/04/13 14:02:48;;;;;;;0.83;0.83;;;;;;;;;;5358845;26;20454;-84
2024/04/13 14:05:16;;;;;;;1.00;1.00;;;;;;;;;;5346583;26;20442;-84
2024/04/13 14:07:47;;;;;;;2.03;1.93;;;;;;;;;;5354899;26;20498;-83
2024/04/13 14:10:15;;;;;;;0.90;0.90;;;;;;;;;;5342015;26;20478;-83
2024/04/13 14:12:46;;;;;;;3.77;2.20;;;;;;;;;;5348053;26;20489;-82
2024/04/13 14:15:15;;;;;;;0.97;0.97;;;;;;;;;;5353433;26;20435;-83
2024/04/13 14:17:45;;;;;;;0.80;0.80;;;;;;;;;;5340895;26;20427;-83
2024/04/13 14:20:18;;;;;;;1.00;1.00;;;;;;;;;;5356706;26;20527;-85
2024/04/13 14:22:46;;;;;;;1.10;1.10;;;;;;;;;;5331592;26;20420;-84
2024/04/13 14:25:16;;;;;;;1.83;0.93;;;;;;;;;;5332749;26;20443;-84
2024/04/13 14:27:48;;;;;;;0.90;0.90;;;;;;;;;;5343143;26;20489;-84
2024/04/13 14:30:21;;;;;;;0.80;0.80;;;;;;;;;;5345783;26;20513;-84
2024/04/13 14:32:48;;;;;;;1.00;1.00;;;;;;;;;;5340855;26;20521;-86
2024/04/13 14:35:16;;;;;;;1.17;0.90;;;;;;;;;;5352405;26;20529;-82
2024/04/13 14:37:47;;;;;;;0.90;0.90;;;;;;;;;;5362172;26;20461;-88
2024/04/13 14:40:15;;;;;;;1.07;1.07;;;;;;;;;;5346916;26;20447;-84
2024/04/13 14:42:48;;;;;;;1.37;1.30;;;;;;;;;;5354627;26;20458;-85
2024/04/13 14:45:17;;;;;;;2.00;1.63;;;;;;;;;;5359729;26;20510;-80
2024/04/13 14:47:44;;;;;;;1.10;1.10;;;;;;;;;;5351122;26;20445;-83
2024/04/13 14:50:13;;;;;;;2.70;2.50;;;;;;;;;;5346420;26;20451;-84
2024/04/13 14:52:42;;;;;;;3.73;1.57;;;;;;;;;;5332729;27;20499;-80
2024/04/13 14:55:10;;;;;;;0.90;0.90;;;;;;;;;;5346828;26;20427;-84
2024/04/13 14:57:38;;;;;;;1.00;1.00;;;;;;;;;;5341779;26;20513;-85
2024/04/13 15:00:07;;;;;;;0.90;0.90;;;;;;;;;;5343649;26;20475;-85
2024/04/13 15:02:36;;;;;;;0.83;0.83;;;;;;;;;;5353232;26;20482;-82
2024/04/13 15:05:08;;;;;;;1.20;1.20;;;;;;;;;;5344022;26;20448;-86
2024/04/13 15:07:41;;;;;;;1.00;1.00;;;;;;;;;;5332053;26;20535;-87
2024/04/13 15:10:14;;;;;;;1.00;1.00;;;;;;;;;;5346951;26;20429;-86
2024/04/13 15:12:41;;;;;;;0.70;0.70;;;;;;;;;;5351517;26;20558;-83
2024/04/13 15:15:11;;;;;;;1.77;1.67;;;;;;;;;;5344685;26;20620;-87
2024/04/13 15:17:41;;;;;;;0.80;0.80;;;;;;;;;;5348117;26;20434;-85
2024/04/13 15:20:12;;;;;;;1.53;1.43;;;;;;;;;;5355780;26;20780;-87
2024/04/13 15:22:40;;;;;;;1.10;1.10;;;;;;;;;;5352300;26;20434;-87
2024/04/13 15:25:08;;;;;;;0.70;0.70;;;;;;;;;;5338562;26;20520;-85
2024/04/13 15:27:41;;;;;;;0.90;0.90;;;;;;;;;;5348395;26;20517;-86
2024/04/13 15:30:10;;;;;;;0.80;0.80;;;;;;;;;;5334803;26;20508;-85
2024/04/13 15:32:42;;;;;;;1.77;1.67;;;;;;;;;;5344502;26;20599;-85
2024/04/13 15:35:12;;;;;;;1.87;1.77;;;;;;;;;;5325094;26;20443;-86